Time;durP1;ratioP1;P1;durP2;ratioP2;P2;SDS_P1;SDS_P2;PMS_P1;PMS_P2;Temp;Humidity;BMP_temperature;BMP_pressure;BME280_temperature;BME280_humidity;BME280_pressure;Samples;Min_cycle;Max_cycle;Signal;HPM_P1;HPM_P2
2022/07/27 00:02:04;;;;;;;6.20;1.48;;;15.50;99.90;;;;;;5094954;28;20116;-72
2022/07/27 00:04:29;;;;;;;4.63;1.23;;;15.60;99.90;;;;;;5094671;28;20051;-72
2022/07/27 00:06:55;;;;;;;5.55;1.27;;;15.50;99.90;;;;;;5113531;28;20055;-72
2022/07/27 00:09:21;;;;;;;6.68;1.20;;;;;;;;;;5077985;28;20536;-73
2022/07/27 00:11:46;;;;;;;3.45;1.20;;;15.50;99.90;;;;;;5078130;28;20080;-73
2022/07/27 00:14:12;;;;;;;5.40;1.17;;;15.60;99.90;;;;;;5112738;28;20047;-74
2022/07/27 00:16:38;;;;;;;8.55;1.42;;;15.80;99.90;;;;;;5094996;28;20074;-72
2022/07/27 00:19:04;;;;;;;5.57;1.25;;;15.30;99.90;;;;;;5077902;28;20079;-73
2022/07/27 00:21:29;;;;;;;5.75;1.10;;;15.30;99.90;;;;;;5094665;28;20080;-73
2022/07/27 00:23:55;;;;;;;4.10;1.10;;;15.30;99.90;;;;;;5077538;28;20043;-72
2022/07/27 00:26:21;;;;;;;3.40;1.00;;;15.30;99.90;;;;;;5094571;28;20042;-72
2022/07/27 00:28:47;;;;;;;5.22;1.40;;;15.00;99.90;;;;;;5112918;28;20043;-73
2022/07/27 00:31:13;;;;;;;4.40;1.27;;;15.00;99.90;;;;;;5094414;28;20035;-72
2022/07/27 00:33:39;;;;;;;5.90;1.08;;;15.00;99.90;;;;;;5094397;28;20039;-72
2022/07/27 00:36:05;;;;;;;3.45;1.10;;;15.00;99.90;;;;;;5094232;28;20115;-73
2022/07/27 00:38:30;;;;;;;6.72;1.30;;;15.00;99.90;;;;;;5094385;28;20047;-72
2022/07/27 00:40:56;;;;;;;4.60;1.30;;;14.90;99.90;;;;;;5094410;28;20047;-72
2022/07/27 00:43:22;;;;;;;7.20;1.40;;;15.00;99.90;;;;;;5094361;28;20127;-73
2022/07/27 00:45:47;;;;;;;5.18;1.05;;;14.90;99.90;;;;;;5094025;28;20058;-72
2022/07/27 00:48:13;;;;;;;5.75;1.27;;;15.00;99.90;;;;;;5112676;28;20031;-72
2022/07/27 00:50:41;;;;;;;4.57;1.20;;;14.80;99.90;;;;;;5095170;28;20031;-73
2022/07/27 00:53:08;;;;;;;2.78;1.00;;;14.80;99.90;;;;;;5117084;28;20085;-73
2022/07/27 00:55:34;;;;;;;4.45;1.17;;;14.80;99.90;;;;;;5082332;28;20031;-72
2022/07/27 00:58:04;;;;;;;4.22;1.30;;;16.30;99.90;;;;;;5117737;28;20039;-73
2022/07/27 01:00:30;;;;;;;5.40;1.15;;;15.50;99.90;;;;;;5100109;28;20043;-73
2022/07/27 01:02:56;;;;;;;5.95;1.10;;;14.50;99.90;;;;;;5095208;28;20035;-73
2022/07/27 01:05:21;;;;;;;7.78;1.35;;;14.60;99.90;;;;;;5112037;28;20039;-72
2022/07/27 01:07:50;;;;;;;5.30;1.38;;;14.60;99.90;;;;;;5093756;28;20067;-74
2022/07/27 01:10:17;;;;;;;4.05;1.05;;;14.40;99.90;;;;;;5112184;28;20093;-73
2022/07/27 01:12:44;;;;;;;3.67;1.08;;;14.40;99.90;;;;;;5093677;28;20043;-72
2022/07/27 01:15:11;;;;;;;7.95;1.25;;;14.50;99.90;;;;;;5093655;28;20475;-72
2022/07/27 01:17:37;;;;;;;5.00;1.50;;;14.40;99.90;;;;;;5111956;28;20115;-72
2022/07/27 01:20:04;;;;;;;5.25;1.17;;;14.40;99.90;;;;;;5112285;28;20051;-73
2022/07/27 01:22:30;;;;;;;5.85;1.13;;;14.50;99.90;;;;;;5093732;28;20088;-75
2022/07/27 01:24:55;;;;;;;5.63;1.25;;;15.50;99.90;;;;;;5111675;28;20127;-73
2022/07/27 01:27:21;;;;;;;8.90;1.65;;;14.40;99.90;;;;;;5093530;28;20499;-73
2022/07/27 01:29:47;;;;;;;2.30;0.98;;;14.30;99.90;;;;;;5093693;28;20043;-72
2022/07/27 01:32:13;;;;;;;1.83;1.02;;;14.40;99.90;;;;;;5076871;28;20040;-73
2022/07/27 01:34:39;;;;;;;5.45;1.25;;;14.20;99.90;;;;;;5093585;28;20158;-72
2022/07/27 01:37:04;;;;;;;4.18;1.25;;;14.00;99.90;;;;;;5111882;28;20039;-72
2022/07/27 01:39:31;;;;;;;3.67;1.33;;;14.40;99.90;;;;;;5111958;28;20047;-72
2022/07/27 01:41:57;;;;;;;3.63;1.10;;;14.10;99.90;;;;;;5093605;28;20401;-74
2022/07/27 01:44:23;;;;;;;6.28;1.73;;;14.20;99.90;;;;;;5076471;28;20062;-75
2022/07/27 01:46:49;;;;;;;4.32;1.30;;;15.70;99.90;;;;;;5111878;28;20465;-72
2022/07/27 01:49:14;;;;;;;2.85;1.02;;;14.20;99.90;;;;;;5111942;28;20032;-73
2022/07/27 01:51:40;;;;;;;4.40;1.05;;;14.00;99.90;;;;;;5111991;28;20115;-72
2022/07/27 01:54:06;;;;;;;3.92;1.55;;;14.20;99.90;;;;;;5076413;28;20047;-72
2022/07/27 01:56:31;;;;;;;5.30;1.65;;;14.20;99.90;;;;;;5093780;28;20140;-72
2022/07/27 01:58:57;;;;;;;4.43;1.40;;;13.90;99.90;;;;;;5112433;28;20040;-73
2022/07/27 02:01:23;;;;;;;4.68;1.15;;;14.00;99.90;;;;;;5077272;28;20039;-73
2022/07/27 02:03:48;;;;;;;4.38;1.10;;;13.90;99.90;;;;;;5078198;28;20126;-76
2022/07/27 02:06:14;;;;;;;7.70;0.90;;;13.80;99.90;;;;;;5097219;28;20035;-73
2022/07/27 02:08:40;;;;;;;6.13;1.23;;;13.90;99.90;;;;;;5097132;28;20039;-72
2022/07/27 02:13:49;;;;;;;4.93;1.67;;;13.80;99.90;;;;;;5097001;28;20050;-73
2022/07/27 02:16:16;;;;;;;2.47;1.10;;;14.00;99.90;;;;;;5096999;28;20035;-73
2022/07/27 02:18:43;;;;;;;9.10;1.50;;;13.80;99.90;;;;;;5080148;28;20047;-72
2022/07/27 02:21:09;;;;;;;6.45;1.60;;;14.00;99.90;;;;;;5097133;28;20043;-73
2022/07/27 02:23:35;;;;;;;5.78;1.48;;;13.80;99.90;;;;;;5079836;28;20105;-72
2022/07/27 02:26:02;;;;;;;4.90;1.48;;;13.80;99.90;;;;;;5096509;28;20040;-72
2022/07/27 02:28:28;;;;;;;3.28;1.13;;;13.80;99.90;;;;;;5115361;28;20040;-72
2022/07/27 02:30:53;;;;;;;4.78;1.45;;;13.70;99.90;;;;;;5115301;28;20039;-73
2022/07/27 02:33:19;;;;;;;2.28;1.30;;;13.80;99.90;;;;;;5096862;28;20043;-72
2022/07/27 02:35:45;;;;;;;7.25;1.63;;;13.90;99.90;;;;;;5096325;28;20067;-73
2022/07/27 02:38:10;;;;;;;5.43;1.13;;;14.40;99.90;;;;;;5096657;28;20499;-73
2022/07/27 02:40:36;;;;;;;3.65;1.45;;;13.70;99.90;;;;;;5096694;28;20051;-75
2022/07/27 02:43:01;;;;;;;3.88;1.23;;;13.80;99.90;;;;;;5096466;28;20050;-72
2022/07/27 02:45:27;;;;;;;6.68;1.38;;;14.00;99.90;;;;;;5079690;28;20450;-73
2022/07/27 02:47:52;;;;;;;6.80;1.63;;;13.90;99.90;;;;;;5114829;28;20118;-73
2022/07/27 02:50:18;;;;;;;5.45;1.50;;;13.80;99.90;;;;;;5114705;28;20031;-72
2022/07/27 02:52:44;;;;;;;2.63;1.40;;;14.10;99.90;;;;;;5096337;28;20051;-72
2022/07/27 02:55:09;;;;;;;5.55;1.30;;;14.00;99.90;;;;;;5096418;28;20560;-73
2022/07/27 02:57:36;;;;;;;2.92;0.90;;;14.10;99.90;;;;;;5096384;28;20108;-73
2022/07/27 03:00:12;;;;;;;6.57;1.10;;;14.10;99.90;;;;;;5096613;28;20100;-73
2022/07/27 03:02:38;;;;;;;5.30;1.30;;;14.20;99.90;;;;;;5096266;28;20109;-73
2022/07/27 03:05:05;;;;;;;4.65;1.70;;;14.10;99.90;;;;;;5079126;28;20027;-73
2022/07/27 03:07:31;;;;;;;4.97;1.67;;;14.20;99.90;;;;;;5114430;28;20039;-72
2022/07/27 03:09:56;;;;;;;6.57;1.13;;;14.20;99.90;;;;;;5096277;28;20035;-72
2022/07/27 03:12:22;;;;;;;5.75;1.88;;;14.00;99.90;;;;;;5096397;28;20515;-72
2022/07/27 03:14:48;;;;;;;4.13;1.27;;;14.30;99.90;;;;;;5095618;28;20043;-74
2022/07/27 03:17:14;;;;;;;5.18;2.00;;;14.30;99.90;;;;;;5095500;28;20078;-72
2022/07/27 03:19:39;;;;;;;6.63;1.83;;;14.20;99.90;;;;;;5096008;28;20452;-72
2022/07/27 03:22:05;;;;;;;6.57;1.48;;;14.40;99.90;;;;;;5096145;28;20127;-73
2022/07/27 03:24:30;;;;;;;7.72;1.40;;;14.40;99.90;;;;;;5095763;28;20063;-73
2022/07/27 03:26:56;;;;;;;6.65;1.33;;;14.30;99.90;;;;;;5096091;28;20104;-72
2022/07/27 03:29:22;;;;;;;6.65;1.42;;;14.30;99.90;;;;;;5095716;28;20497;-72
2022/07/27 03:31:47;;;;;;;17.88;1.48;;;14.40;99.90;;;;;;5078786;28;20589;-72
2022/07/27 03:34:13;;;;;;;7.32;1.83;;;14.20;99.90;;;;;;5095187;28;20468;-73
2022/07/27 03:36:38;;;;;;;4.95;1.20;;;14.50;99.90;;;;;;5095418;28;20088;-72
2022/07/27 03:39:04;;;;;;;4.85;1.33;;;14.30;99.90;;;;;;5095490;28;20043;-72
2022/07/27 03:41:30;;;;;;;6.90;1.65;;;14.30;99.90;;;;;;5113796;28;20055;-72
2022/07/27 03:43:56;;;;;;;6.40;1.42;;;14.30;99.90;;;;;;5095275;28;20035;-72
2022/07/27 03:46:21;;;;;;;7.47;1.48;;;14.30;99.90;;;;;;5095574;28;20040;-72
2022/07/27 03:48:47;;;;;;;5.30;1.13;;;14.20;99.90;;;;;;5095357;28;20130;-72
2022/07/27 03:51:13;;;;;;;8.38;1.58;;;14.30;99.90;;;;;;5100780;28;20040;-72
2022/07/27 03:53:38;;;;;;;7.00;1.70;;;14.20;99.90;;;;;;5100806;28;20035;-72
2022/07/27 03:56:04;;;;;;;5.50;1.40;;;14.20;99.90;;;;;;5119167;28;20043;-73
2022/07/27 03:58:29;;;;;;;8.48;2.22;;;14.40;99.90;;;;;;5119015;28;20075;-72
2022/07/27 04:00:55;;;;;;;4.28;1.52;;;14.30;99.90;;;;;;5096169;28;20027;-72
2022/07/27 04:03:22;;;;;;;8.40;1.70;;;14.30;99.90;;;;;;5095063;28;20480;-72
2022/07/27 04:05:47;;;;;;;6.53;1.65;;;14.50;99.90;;;;;;5112723;28;20110;-72
2022/07/27 04:08:13;;;;;;;6.82;1.80;;;14.50;99.90;;;;;;5094964;28;20054;-72
2022/07/27 04:10:38;;;;;;;11.13;1.75;;;14.40;99.90;;;;;;5113132;28;20038;-72
2022/07/27 04:13:04;;;;;;;7.35;1.88;;;14.50;99.90;;;;;;5094830;28;20039;-72
2022/07/27 04:15:30;;;;;;;4.47;1.60;;;14.60;99.90;;;;;;5077924;28;20071;-72
2022/07/27 04:20:22;;;;;;;6.20;2.63;;;;;;;;;;5092211;22;20509;-76
2022/07/27 04:22:48;;;;;;;9.15;2.20;;;14.60;99.90;;;;;;5054620;28;20094;-75
2022/07/27 04:25:14;;;;;;;3.63;1.40;;;;;;;;;;5054210;28;20033;-76
2022/07/27 04:27:39;;;;;;;5.97;1.70;;;14.70;99.90;;;;;;5071601;28;20032;-76
2022/07/27 04:30:06;;;;;;;5.20;1.63;;;14.50;99.90;;;;;;5090377;28;20043;-76
2022/07/27 04:32:31;;;;;;;6.75;1.55;;;14.50;99.90;;;;;;5074529;28;20066;-76
2022/07/27 04:34:57;;;;;;;3.05;1.58;;;;;;;;;;5074142;28;20044;-76
2022/07/27 04:37:23;;;;;;;8.02;1.80;;;14.80;99.90;;;;;;5074516;28;20039;-76
2022/07/27 04:39:48;;;;;;;6.57;1.80;;;14.80;99.90;;;;;;5074352;28;20081;-76
2022/07/27 04:42:14;;;;;;;12.88;2.30;;;14.70;99.90;;;;;;5074351;28;20039;-76
2022/07/27 04:44:39;;;;;;;14.00;2.72;;;14.60;99.90;;;;;;5074097;28;20117;-76
2022/07/27 04:47:05;;;;;;;8.57;2.45;;;14.70;99.90;;;;;;5092392;28;20584;-76
2022/07/27 04:49:31;;;;;;;9.20;2.13;;;14.70;99.90;;;;;;5092327;28;20074;-76
2022/07/27 04:51:56;;;;;;;9.30;2.17;;;14.80;99.90;;;;;;5057643;28;20047;-76
2022/07/27 04:54:22;;;;;;;7.88;2.50;;;14.70;99.90;;;;;;5092164;28;20043;-76
2022/07/27 04:56:47;;;;;;;7.15;2.38;;;14.80;99.90;;;;;;5092390;28;20111;-76
2022/07/27 04:59:13;;;;;;;3.70;2.60;;;;;;;;;;5074125;28;20036;-76
2022/07/27 05:01:39;;;;;;;8.55;2.55;;;14.80;99.90;;;;;;5074373;28;20059;-77
2022/07/27 05:04:05;;;;;;;5.55;2.10;;;14.70;99.90;;;;;;5073789;28;20563;-76
2022/07/27 05:06:31;;;;;;;9.00;1.98;;;14.90;99.90;;;;;;5092070;28;20081;-76
2022/07/27 05:08:58;;;;;;;6.35;2.40;;;14.90;99.90;;;;;;5092331;28;20549;-76
2022/07/27 05:11:23;;;;;;;8.70;2.75;;;14.90;99.90;;;;;;5092275;28;20078;-76
2022/07/27 05:13:49;;;;;;;5.53;1.88;;;;;;;;;;5074140;28;20071;-76
2022/07/27 05:16:15;;;;;;;8.30;2.75;;;15.00;99.90;;;;;;5074094;28;20151;-76
2022/07/27 05:18:40;;;;;;;10.00;2.40;;;15.00;99.90;;;;;;5073949;28;20042;-76
2022/07/27 05:21:07;;;;;;;7.30;1.67;;;15.00;99.90;;;;;;5073960;28;20036;-76
2022/07/27 05:23:33;;;;;;;7.53;1.83;;;15.00;99.90;;;;;;5074000;28;20455;-75
2022/07/27 05:25:59;;;;;;;4.30;1.98;;;15.10;99.90;;;;;;5073573;28;20065;-75
2022/07/27 05:28:24;;;;;;;12.15;2.20;;;15.10;99.90;;;;;;5057432;28;20047;-76
2022/07/27 05:30:50;;;;;;;8.90;2.80;;;15.20;99.90;;;;;;5057061;28;20489;-76
2022/07/27 05:33:16;;;;;;;4.47;2.10;;;;;;;;;;5073846;28;20036;-75
2022/07/27 05:35:41;;;;;;;5.38;1.67;;;15.30;99.90;;;;;;5073848;28;20036;-75
2022/07/27 05:38:07;;;;;;;6.25;2.58;;;15.30;99.90;;;;;;5073760;28;20497;-76
2022/07/27 05:40:33;;;;;;;9.75;1.92;;;15.20;99.90;;;;;;5077879;28;20040;-76
2022/07/27 05:42:58;;;;;;;6.45;1.88;;;15.30;99.90;;;;;;5064223;28;20032;-76
2022/07/27 05:45:25;;;;;;;7.32;1.88;;;15.40;99.90;;;;;;5057658;28;20080;-77
2022/07/27 05:47:52;;;;;;;6.60;1.88;;;15.50;99.90;;;;;;5075416;28;20047;-76
2022/07/27 05:50:17;;;;;;;5.32;1.83;;;15.40;99.90;;;;;;5041049;28;20120;-76
2022/07/27 05:52:43;;;;;;;13.65;3.15;;;15.30;99.90;;;;;;5065936;28;20083;-76
2022/07/27 05:55:10;;;;;;;9.13;2.72;;;15.30;99.90;;;;;;5066644;28;20087;-76
2022/07/27 05:57:36;;;;;;;8.18;2.38;;;15.30;99.90;;;;;;5057327;28;20402;-76
2022/07/27 06:00:06;;;;;;;5.50;1.58;;;15.40;99.90;;;;;;5068615;28;20040;-76
2022/07/27 06:02:32;;;;;;;9.45;2.10;;;15.50;99.90;;;;;;5070930;28;20512;-76
2022/07/27 06:04:57;;;;;;;10.73;2.38;;;15.40;99.90;;;;;;5072766;28;20036;-76
2022/07/27 06:10:07;;;;;;;5.55;2.67;;;15.50;99.90;;;;;;5068092;28;20048;-76
2022/07/27 06:12:41;;;;;;;8.45;2.88;;;15.70;99.90;;;;;;5067044;28;20474;-76
2022/07/27 06:15:08;;;;;;;5.03;1.90;;;15.70;99.90;;;;;;5066840;28;20040;-75
2022/07/27 06:17:34;;;;;;;6.85;1.70;;;;;;;;;;5056742;28;20051;-75
2022/07/27 06:20:00;;;;;;;7.80;1.95;;;15.90;99.90;;;;;;5055389;28;20055;-75
2022/07/27 06:22:25;;;;;;;7.45;2.20;;;15.90;99.90;;;;;;5070707;28;20032;-74
2022/07/27 06:24:51;;;;;;;6.60;2.17;;;15.90;99.90;;;;;;5082036;28;20446;-76
2022/07/27 06:27:16;;;;;;;9.68;1.70;;;16.30;99.90;;;;;;5056607;28;20041;-77
2022/07/27 06:29:42;;;;;;;7.40;1.70;;;16.20;99.90;;;;;;5040003;28;20182;-77
2022/07/27 06:32:08;;;;;;;5.75;1.50;;;16.40;99.90;;;;;;5075420;28;20045;-75
2022/07/27 06:34:34;;;;;;;6.85;1.70;;;16.40;99.90;;;;;;5074889;28;20060;-74
2022/07/27 06:36:59;;;;;;;6.60;1.63;;;16.40;99.90;;;;;;5056706;28;20033;-75
2022/07/27 06:39:26;;;;;;;4.55;1.23;;;16.60;99.90;;;;;;5056624;28;20033;-74
2022/07/27 06:41:52;;;;;;;3.30;1.50;;;;;;;;;;5038601;28;20036;-74
2022/07/27 06:44:17;;;;;;;7.32;1.50;;;16.60;99.90;;;;;;5060551;28;20124;-74
2022/07/27 06:46:43;;;;;;;3.70;1.40;;;16.70;99.90;;;;;;5081547;28;20031;-74
2022/07/27 06:49:09;;;;;;;7.38;1.55;;;16.80;99.90;;;;;;5087152;28;20074;-74
2022/07/27 06:51:34;;;;;;;7.22;1.45;;;16.90;99.90;;;;;;5065707;28;20490;-74
2022/07/27 06:54:00;;;;;;;6.65;1.33;;;16.90;99.90;;;;;;5038709;28;20177;-75
2022/07/27 06:56:26;;;;;;;7.22;1.38;;;17.80;99.90;;;;;;5074605;28;20037;-75
2022/07/27 06:58:51;;;;;;;8.00;1.48;;;18.40;99.90;;;;;;5039609;28;20406;-76
2022/07/27 07:01:17;;;;;;;8.73;1.38;;;17.50;99.90;;;;;;5056494;28;20040;-76
2022/07/27 07:03:43;;;;;;;5.32;1.88;;;17.20;99.90;;;;;;5074352;28;20037;-75
2022/07/27 07:06:09;;;;;;;5.45;1.50;;;17.10;99.90;;;;;;5074101;28;20055;-75
2022/07/27 07:08:35;;;;;;;7.70;2.10;;;17.20;99.90;;;;;;5056160;28;20051;-76
2022/07/27 07:11:00;;;;;;;7.80;1.75;;;17.70;99.90;;;;;;5073961;28;20033;-76
2022/07/27 07:13:26;;;;;;;6.22;1.40;;;17.70;99.90;;;;;;5056138;28;20417;-75
2022/07/27 07:15:52;;;;;;;6.30;2.53;;;17.50;99.90;;;;;;5055825;28;20151;-75
2022/07/27 07:18:17;;;;;;;9.82;1.50;;;18.70;99.90;;;;;;5073782;28;20166;-76
2022/07/27 07:20:43;;;;;;;6.18;2.05;;;17.90;99.90;;;;;;5083513;28;20089;-75
2022/07/27 07:23:09;;;;;;;8.73;1.83;;;18.10;99.90;;;;;;5055944;28;20113;-75
2022/07/27 07:25:36;;;;;;;6.38;2.47;;;18.00;99.90;;;;;;5055559;28;20075;-75
2022/07/27 07:28:02;;;;;;;5.70;1.20;;;18.10;99.90;;;;;;5056156;28;20040;-76
2022/07/27 07:30:28;;;;;;;5.93;1.48;;;17.90;99.90;;;;;;5081099;28;20024;-76
2022/07/27 07:32:53;;;;;;;7.47;1.50;;;19.50;99.90;;;;;;5073261;28;20040;-76
2022/07/27 07:35:19;;;;;;;7.47;1.02;;;18.40;99.90;;;;;;5079676;28;20046;-76
2022/07/27 07:37:45;;;;;;;7.80;2.17;;;19.70;99.90;;;;;;5075750;28;20047;-75
2022/07/27 07:40:11;;;;;;;4.10;1.23;;;18.40;99.90;;;;;;5093437;28;20412;-76
2022/07/27 07:43:10;;;;;;;8.52;1.80;;;18.30;99.90;;;;;;5074645;28;20051;-76
2022/07/27 07:45:36;;;;;;;4.63;1.30;;;18.30;99.90;;;;;;5032108;28;20056;-76
2022/07/27 07:48:04;;;;;;;4.60;1.30;;;17.80;99.90;;;;;;5072617;28;20040;-75
2022/07/27 07:50:30;;;;;;;3.13;1.40;;;17.90;99.90;;;;;;5071864;28;20032;-75
2022/07/27 07:52:57;;;;;;;6.45;1.92;;;19.60;99.90;;;;;;5072517;28;20056;-75
2022/07/27 07:55:24;;;;;;;4.25;1.02;;;18.30;99.90;;;;;;5073614;28;20044;-76
2022/07/27 07:57:50;;;;;;;6.43;1.30;;;18.40;99.90;;;;;;5074498;28;20115;-76
2022/07/27 08:00:16;;;;;;;6.93;1.73;;;18.10;99.90;;;;;;5073549;28;20520;-75
2022/07/27 08:02:46;;;;;;;3.33;1.75;;;17.70;99.90;;;;;;5058249;28;20040;-74
2022/07/27 08:05:12;;;;;;;6.07;1.20;;;17.90;99.90;;;;;;5074737;28;20081;-74
2022/07/27 08:07:39;;;;;;;4.25;1.52;;;17.60;99.90;;;;;;5093443;28;20040;-74
2022/07/27 08:10:06;;;;;;;6.90;1.20;;;19.00;99.90;;;;;;5093190;28;20051;-74
2022/07/27 08:12:33;;;;;;;5.07;1.48;;;17.30;99.90;;;;;;5093165;28;20170;-74
2022/07/27 08:14:59;;;;;;;4.28;1.10;;;17.50;99.90;;;;;;5074456;28;20383;-74
2022/07/27 08:17:25;;;;;;;4.03;1.45;;;17.10;99.90;;;;;;5092924;28;20051;-74
2022/07/27 08:19:50;;;;;;;11.65;2.35;;;17.20;99.90;;;;;;5074560;28;20513;-74
2022/07/27 08:22:16;;;;;;;5.80;1.35;;;17.40;99.90;;;;;;5092960;28;20105;-75
2022/07/27 08:24:41;;;;;;;5.55;1.55;;;19.20;99.90;;;;;;5092816;28;20028;-74
2022/07/27 08:27:07;;;;;;;4.22;1.08;;;17.30;99.90;;;;;;5074921;28;20036;-75
2022/07/27 08:29:32;;;;;;;6.65;1.20;;;18.50;99.90;;;;;;5071719;28;20497;-75
2022/07/27 08:31:58;;;;;;;4.80;0.98;;;17.10;99.90;;;;;;5075277;28;20085;-74
2022/07/27 08:34:23;;;;;;;6.00;1.42;;;17.90;99.90;;;;;;5054029;28;20043;-74
2022/07/27 08:36:49;;;;;;;4.45;1.02;;;18.00;99.90;;;;;;5054597;28;20136;-75
2022/07/27 08:39:14;;;;;;;4.13;1.00;;;17.30;99.90;;;;;;5053990;28;20044;-75
2022/07/27 08:41:41;;;;;;;4.43;1.70;;;17.60;99.90;;;;;;5072008;28;20055;-75
2022/07/27 08:44:10;;;;;;;2.45;1.02;;;18.90;99.90;;;;;;5068767;28;20074;-75
2022/07/27 08:46:39;;;;;;;3.58;0.95;;;17.60;99.90;;;;;;5084327;28;20047;-86
2022/07/27 08:49:07;;;;;;;4.93;1.38;;;17.70;99.90;;;;;;5052043;28;20111;-77
2022/07/27 08:51:33;;;;;;;4.10;0.90;;;17.80;99.90;;;;;;5052387;28;20414;-77
2022/07/27 08:53:59;;;;;;;4.80;1.25;;;19.60;99.90;;;;;;5052420;28;20037;-76
2022/07/27 08:56:26;;;;;;;3.83;1.17;;;19.20;99.90;;;;;;5053118;28;20150;-76
2022/07/27 08:58:51;;;;;;;6.78;1.65;;;19.70;99.90;;;;;;5071527;28;20036;-76
2022/07/27 09:01:17;;;;;;;3.75;1.17;;;18.10;99.90;;;;;;5089099;28;20051;-76
2022/07/27 09:03:43;;;;;;;6.05;1.00;;;17.90;99.90;;;;;;5085142;28;20036;-77
2022/07/27 09:06:09;;;;;;;3.35;1.35;;;18.20;99.90;;;;;;5082825;28;20075;-77
2022/07/27 09:08:37;;;;;;;4.20;1.60;;;18.60;99.90;;;;;;5070214;28;20058;-76
2022/07/27 09:11:14;;;;;;;2.55;0.95;;;18.90;99.90;;;;;;5054377;28;20120;-74
2022/07/27 09:13:40;;;;;;;4.43;0.90;;;18.80;99.90;;;;;;5062404;28;20504;-74
2022/07/27 09:16:08;;;;;;;11.30;1.45;;;18.60;99.90;;;;;;5087864;28;20040;-75
2022/07/27 09:18:36;;;;;;;4.47;1.20;;;18.70;99.90;;;;;;5082931;28;20036;-74
2022/07/27 09:21:20;;;;;;;6.93;1.25;;;19.00;99.90;;;;;;5055926;28;20512;-74
2022/07/27 09:23:53;;;;;;;8.45;1.63;;;18.80;99.90;;;;;;5065479;28;20127;-74
2022/07/27 09:26:24;;;;;;;5.05;1.00;;;18.50;99.60;;;;;;5066164;28;20047;-75
2022/07/27 09:28:54;;;;;;;4.65;1.02;;;18.40;99.90;;;;;;5057877;28;20581;-74
2022/07/27 09:31:22;;;;;;;5.03;1.00;;;18.10;99.90;;;;;;5072425;28;20040;-74
2022/07/27 09:33:51;;;;;;;4.05;1.08;;;18.40;99.90;;;;;;5076529;28;20078;-74
2022/07/27 09:36:19;;;;;;;3.45;1.00;;;18.20;99.90;;;;;;5072003;28;20083;-75
2022/07/27 09:39:04;;;;;;;3.35;1.05;;;18.80;99.90;;;;;;5069827;28;20080;-75
2022/07/27 09:41:45;;;;;;;3.78;0.75;;;18.60;99.90;;;;;;5071264;28;20044;-75
2022/07/27 09:44:11;;;;;;;5.88;1.27;;;18.70;99.90;;;;;;5080058;28;20044;-75
2022/07/27 09:46:39;;;;;;;2.97;1.13;;;18.70;99.90;;;;;;5087913;28;20032;-75
2022/07/27 09:49:05;;;;;;;7.00;1.00;;;18.80;99.90;;;;;;5072970;28;20082;-75
2022/07/27 09:51:31;;;;;;;5.25;1.33;;;18.70;99.90;;;;;;5073326;28;20089;-75
2022/07/27 09:54:04;;;;;;;7.25;1.20;;;19.50;99.90;;;;;;5080815;28;20051;-74
2022/07/27 09:56:31;;;;;;;5.35;1.42;;;18.50;99.90;;;;;;5073299;28;20105;-75
2022/07/27 09:59:00;;;;;;;10.10;1.35;;;18.70;99.90;;;;;;5070369;28;20044;-75
2022/07/27 10:01:33;;;;;;;13.07;1.65;;;21.10;99.90;;;;;;5070505;28;20036;-74
2022/07/27 10:04:04;;;;;;;5.53;0.80;;;20.20;99.90;;;;;;5070837;28;20513;-74
2022/07/27 10:06:29;;;;;;;5.75;1.00;;;20.20;99.70;;;;;;5054880;28;20090;-76
2022/07/27 10:08:57;;;;;;;3.65;1.13;;;19.70;98.90;;;;;;5071830;28;20040;-77
2022/07/27 10:11:23;;;;;;;5.43;0.95;;;20.30;99.10;;;;;;5078055;28;20040;-76
2022/07/27 10:13:51;;;;;;;3.70;1.00;;;19.70;98.60;;;;;;5089835;28;20086;-76
2022/07/27 10:16:22;;;;;;;5.97;1.23;;;19.80;98.60;;;;;;5045601;28;20037;-76
2022/07/27 10:18:57;;;;;;;4.78;2.10;;;19.30;98.80;;;;;;5086272;22;20015;-72
2022/07/27 10:21:24;;;;;;;6.45;1.95;;;19.20;97.90;;;;;;5031945;28;20068;-73
2022/07/27 10:24:00;;;;;;;7.95;1.60;;;19.30;98.20;;;;;;5070031;28;20040;-72
2022/07/27 10:26:30;;;;;;;3.58;1.20;;;19.20;98.40;;;;;;5070786;28;20497;-72
2022/07/27 10:29:18;;;;;;;3.55;0.73;;;20.50;99.50;;;;;;5056124;28;20037;-72
2022/07/27 10:31:52;;;;;;;7.68;1.60;;;19.00;99.10;;;;;;5054999;28;20045;-73
2022/07/27 10:34:35;;;;;;;4.22;1.40;;;19.00;99.00;;;;;;5064996;28;20577;-72
2022/07/27 10:37:22;;;;;;;4.97;0.98;;;18.80;99.20;;;;;;5059304;28;20079;-70
2022/07/27 10:42:41;;;;;;;3.40;0.60;;;19.00;98.70;;;;;;5049889;28;20052;-70
2022/07/27 10:45:09;;;;;;;2.17;0.80;;;19.50;98.30;;;;;;5051561;28;20036;-73
2022/07/27 10:47:49;;;;;;;4.00;1.23;;;18.90;98.10;;;;;;5070085;28;20036;-72
2022/07/27 10:50:15;;;;;;;3.10;1.13;;;19.80;98.60;;;;;;5070537;28;20036;-69
2022/07/27 10:52:48;;;;;;;2.88;1.13;;;19.40;98.60;;;;;;5051175;28;20055;-73
2022/07/27 10:55:29;;;;;;;1.77;0.95;;;19.40;97.90;;;;;;5035398;28;20044;-72
2022/07/27 10:57:56;;;;;;;3.20;1.23;;;19.60;98.30;;;;;;5051095;28;20052;-74
2022/07/27 11:00:47;;;;;;;4.00;0.90;;;19.60;98.20;;;;;;5051563;28;20040;-71
2022/07/27 11:03:23;;;;;;;1.30;0.80;;;19.60;97.90;;;;;;5046236;28;20040;-72
2022/07/27 11:06:00;;;;;;;4.45;0.70;;;19.60;97.60;;;;;;5068727;28;20029;-72
2022/07/27 11:08:32;;;;;;;4.18;0.93;;;19.70;97.60;;;;;;5065948;28;20097;-73
2022/07/27 11:10:59;;;;;;;1.92;0.95;;;19.20;98.60;;;;;;5070175;28;20036;-73
2022/07/27 11:13:27;;;;;;;1.42;0.70;;;19.70;98.50;;;;;;5072776;28;20040;-72
2022/07/27 11:15:53;;;;;;;4.35;0.80;;;20.40;98.30;;;;;;5054264;28;20417;-73
2022/07/27 11:18:30;;;;;;;4.75;0.77;;;20.30;97.70;;;;;;5073303;28;20036;-71
2022/07/27 11:21:29;;;;;;;6.32;0.98;;;20.60;97.70;;;;;;5055440;28;20045;-70
2022/07/27 11:24:04;;;;;;;3.72;0.63;;;20.80;96.70;;;;;;5055059;28;20044;-69
2022/07/27 11:26:38;;;;;;;2.30;0.57;;;20.90;95.60;;;;;;5046286;28;20050;-71
2022/07/27 11:29:07;;;;;;;4.75;1.30;;;20.90;96.30;;;;;;5055305;28;20054;-70
2022/07/27 11:31:34;;;;;;;2.78;0.68;;;21.40;97.00;;;;;;5060836;28;20033;-71
2022/07/27 11:34:00;;;;;;;1.95;0.88;;;21.30;96.50;;;;;;5062938;28;20529;-71
2022/07/27 11:36:45;;;;;;;3.22;0.82;;;23.20;96.10;;;;;;5062314;28;20052;-74
2022/07/27 11:39:13;;;;;;;2.00;0.65;;;21.50;95.90;;;;;;5062783;28;20089;-73
2022/07/27 11:41:40;;;;;;;1.42;0.50;;;20.10;95.60;;;;;;5066488;28;20036;-73
2022/07/27 11:44:19;;;;;;;3.40;0.75;;;20.70;96.00;;;;;;5074292;28;20493;-73
2022/07/27 11:46:46;;;;;;;2.15;0.77;;;20.60;96.20;;;;;;5054311;28;20520;-73
2022/07/27 11:49:16;;;;;;;2.60;0.70;;;21.90;97.30;;;;;;5054609;28;20029;-71
2022/07/27 11:51:44;;;;;;;2.65;0.93;;;20.70;96.70;;;;;;5056837;28;20029;-71
2022/07/27 11:54:31;;;;;;;5.93;1.55;;;20.90;97.00;;;;;;5079102;28;20162;-71
2022/07/27 11:57:02;;;;;;;2.22;0.52;;;20.70;95.90;;;;;;5054893;28;20042;-72
2022/07/27 11:59:33;;;;;;;2.03;0.80;;;20.60;96.50;;;;;;5054716;28;20083;-71
2022/07/27 12:02:01;;;;;;;3.17;0.45;;;20.70;96.70;;;;;;5072489;28;20051;-71
2022/07/27 12:04:37;;;;;;;2.40;0.65;;;21.30;97.10;;;;;;5052391;28;20029;-71
2022/07/27 12:07:14;;;;;;;1.95;1.02;;;20.50;96.60;;;;;;5053197;28;20045;-71
2022/07/27 12:09:48;;;;;;;2.33;0.80;;;20.60;96.40;;;;;;5071861;28;20036;-70
2022/07/27 12:12:18;;;;;;;5.00;1.15;;;20.40;97.10;;;;;;5072825;28;20032;-71
2022/07/27 12:14:53;;;;;;;7.85;1.35;;;20.10;97.30;;;;;;5054400;28;20493;-72
2022/07/27 12:17:34;;;;;;;4.00;0.90;;;19.80;97.90;;;;;;5053405;28;20123;-70
2022/07/27 12:20:08;;;;;;;3.80;0.70;;;19.90;98.10;;;;;;5054079;28;20086;-70
2022/07/27 12:22:33;;;;;;;4.68;0.90;;;21.20;97.90;;;;;;5071040;28;20076;-70
2022/07/27 12:25:04;;;;;;;2.72;0.60;;;22.40;97.60;;;;;;5053635;28;20078;-70
2022/07/27 12:27:30;;;;;;;2.03;0.60;;;20.50;97.30;;;;;;5037990;28;20036;-70
2022/07/27 12:30:14;;;;;;;4.18;0.80;;;19.90;97.70;;;;;;5037670;28;20044;-70
2022/07/27 12:32:43;;;;;;;1.50;0.68;;;20.30;97.80;;;;;;5037474;28;20048;-70
2022/07/27 12:35:27;;;;;;;4.30;0.77;;;22.10;98.20;;;;;;5071041;28;20071;-70
2022/07/27 12:38:05;;;;;;;4.15;1.48;;;20.60;98.20;;;;;;5057017;28;20079;-70
2022/07/27 12:40:32;;;;;;;2.55;0.55;;;20.30;97.80;;;;;;5073903;28;20093;-70
2022/07/27 12:43:03;;;;;;;3.17;0.90;;;19.90;97.30;;;;;;5072980;28;20153;-70
2022/07/27 12:45:34;;;;;;;2.47;0.63;;;19.60;97.50;;;;;;5053404;28;20032;-70
2022/07/27 12:48:21;;;;;;;2.78;0.73;;;19.40;97.80;;;;;;5070854;28;20043;-70
2022/07/27 12:51:06;;;;;;;2.20;0.65;;;19.80;98.00;;;;;;5071240;28;20486;-70
2022/07/27 12:53:33;;;;;;;3.03;0.70;;;19.80;97.90;;;;;;5071359;28;20421;-70
2022/07/27 12:56:01;;;;;;;3.83;0.93;;;20.00;98.10;;;;;;5052253;28;20043;-68
2022/07/27 12:58:27;;;;;;;3.10;0.68;;;20.10;98.00;;;;;;5053138;28;20040;-71
2022/07/27 13:00:53;;;;;;;5.63;1.27;;;20.00;98.30;;;;;;5036450;28;20043;-71
2022/07/27 13:03:19;;;;;;;4.22;1.00;;;20.10;98.40;;;;;;5053026;28;20041;-70
2022/07/27 13:05:45;;;;;;;9.95;1.05;;;21.30;98.50;;;;;;5052906;28;20052;-70